sensor_id;sensor_type;location;lat;lon;timestamp;temperature;humidity
3866;DHT22;1948;53.250;10.412;2023-05-08T00:00:16;10.80;99.90
3866;DHT22;1948;53.250;10.412;2023-05-08T00:02:45;10.70;99.90
3866;DHT22;1948;53.250;10.412;2023-05-08T00:05:12;10.60;99.90
3866;DHT22;1948;53.250;10.412;2023-05-08T00:07:42;10.60;99.90
3866;DHT22;1948;53.250;10.412;2023-05-08T00:10:14;10.60;99.90
3866;DHT22;1948;53.250;10.412;2023-05-08T00:12:41;10.50;99.90
3866;DHT22;1948;53.250;10.412;2023-05-08T00:15:08;10.50;99.90
3866;DHT22;1948;53.250;10.412;2023-05-08T00:17:40;10.50;99.90
3866;DHT22;1948;53.250;10.412;2023-05-08T00:20:10;10.50;99.90
3866;DHT22;1948;53.250;10.412;2023-05-08T00:22:37;10.50;99.90
3866;DHT22;1948;53.250;10.412;2023-05-08T00:25:05;10.50;99.90
3866;DHT22;1948;53.250;10.412;2023-05-08T00:27:34;10.40;99.90
3866;DHT22;1948;53.250;10.412;2023-05-08T00:32:36;10.40;99.90
3866;DHT22;1948;53.250;10.412;2023-05-08T00:35:03;10.30;99.90
3866;DHT22;1948;53.250;10.412;2023-05-08T00:37:33;10.30;99.90
3866;DHT22;1948;53.250;10.412;2023-05-08T00:40:00;10.30;99.90
3866;DHT22;1948;53.250;10.412;2023-05-08T00:42:30;10.20;99.90
3866;DHT22;1948;53.250;10.412;2023-05-08T00:44:59;10.30;99.90
3866;DHT22;1948;53.250;10.412;2023-05-08T00:47:30;10.20;99.90
3866;DHT22;1948;53.250;10.412;2023-05-08T00:49:58;10.20;99.90
3866;DHT22;1948;53.250;10.412;2023-05-08T00:52:30;10.20;99.90
3866;DHT22;1948;53.250;10.412;2023-05-08T00:55:01;10.10;99.90
3866;DHT22;1948;53.250;10.412;2023-05-08T00:57:31;10.20;99.90
3866;DHT22;1948;53.250;10.412;2023-05-08T01:00:00;10.10;99.90
3866;DHT22;1948;53.250;10.412;2023-05-08T01:02:27;10.10;99.90
3866;DHT22;1948;53.250;10.412;2023-05-08T01:04:57;10.10;99.90
3866;DHT22;1948;53.250;10.412;2023-05-08T01:07:24;10.10;99.90
3866;DHT22;1948;53.250;10.412;2023-05-08T01:09:51;10.00;99.90
3866;DHT22;1948;53.250;10.412;2023-05-08T01:15:10;9.80;99.90
3866;DHT22;1948;53.250;10.412;2023-05-08T01:32:23;9.70;99.90
3866;DHT22;1948;53.250;10.412;2023-05-08T01:35:31;9.60;99.90
3866;DHT22;1948;53.250;10.412;2023-05-08T01:41:07;9.50;99.90
3866;DHT22;1948;53.250;10.412;2023-05-08T01:46:27;9.40;99.90
3866;DHT22;1948;53.250;10.412;2023-05-08T01:52:05;9.30;99.90
3866;DHT22;1948;53.250;10.412;2023-05-08T01:54:40;9.30;99.90
3866;DHT22;1948;53.250;10.412;2023-05-08T01:57:13;9.30;99.90
3866;DHT22;1948;53.250;10.412;2023-05-08T01:59:43;9.30;99.90
3866;DHT22;1948;53.250;10.412;2023-05-08T02:02:14;9.30;99.90
3866;DHT22;1948;53.250;10.412;2023-05-08T02:04:43;9.20;99.90
3866;DHT22;1948;53.250;10.412;2023-05-08T02:07:10;9.20;99.90
3866;DHT22;1948;53.250;10.412;2023-05-08T02:09:38;9.20;99.90
3866;DHT22;1948;53.250;10.412;2023-05-08T02:12:07;9.20;99.90
3866;DHT22;1948;53.250;10.412;2023-05-08T02:14:36;9.20;99.90
3866;DHT22;1948;53.250;10.412;2023-05-08T02:17:04;9.10;99.90
3866;DHT22;1948;53.250;10.412;2023-05-08T02:19:37;9.10;99.90
3866;DHT22;1948;53.250;10.412;2023-05-08T02:22:10;9.10;99.90
3866;DHT22;1948;53.250;10.412;2023-05-08T02:24:45;9.00;99.90
3866;DHT22;1948;53.250;10.412;2023-05-08T02:27:19;9.00;99.90
3866;DHT22;1948;53.250;10.412;2023-05-08T02:29:50;9.00;99.90
3866;DHT22;1948;53.250;10.412;2023-05-08T02:32:22;8.90;99.90
3866;DHT22;1948;53.250;10.412;2023-05-08T02:34:56;8.90;99.90
3866;DHT22;1948;53.250;10.412;2023-05-08T02:37:30;9.00;99.90
3866;DHT22;1948;53.250;10.412;2023-05-08T02:39:58;8.90;99.90
3866;DHT22;1948;53.250;10.412;2023-05-08T02:42:25;8.90;99.90
3866;DHT22;1948;53.250;10.412;2023-05-08T02:44:54;8.90;99.90
3866;DHT22;1948;53.250;10.412;2023-05-08T02:47:26;8.80;99.90
3866;DHT22;1948;53.250;10.412;2023-05-08T02:52:46;8.80;99.90
3866;DHT22;1948;53.250;10.412;2023-05-08T02:58:21;8.80;99.90
3866;DHT22;1948;53.250;10.412;2023-05-08T03:01:01;8.70;99.90
3866;DHT22;1948;53.250;10.412;2023-05-08T03:03:39;8.80;99.90
3866;DHT22;1948;53.250;10.412;2023-05-08T03:06:19;8.70;99.90
3866;DHT22;1948;53.250;10.412;2023-05-08T03:08:48;8.70;99.90
3866;DHT22;1948;53.250;10.412;2023-05-08T03:11:23;8.70;99.90
3866;DHT22;1948;53.250;10.412;2023-05-08T03:13:58;8.60;99.90
3866;DHT22;1948;53.250;10.412;2023-05-08T03:16:33;8.70;99.90
3866;DHT22;1948;53.250;10.412;2023-05-08T03:19:05;8.70;99.90
3866;DHT22;1948;53.250;10.412;2023-05-08T03:21:37;8.60;99.90
3866;DHT22;1948;53.250;10.412;2023-05-08T03:24:08;8.60;99.90
3866;DHT22;1948;53.250;10.412;2023-05-08T03:26:40;8.60;99.90
3866;DHT22;1948;53.250;10.412;2023-05-08T03:29:12;8.60;99.90
3866;DHT22;1948;53.250;10.412;2023-05-08T03:31:41;8.60;99.90
3866;DHT22;1948;53.250;10.412;2023-05-08T03:34:15;8.50;99.90
3866;DHT22;1948;53.250;10.412;2023-05-08T03:36:46;8.50;99.90
3866;DHT22;1948;53.250;10.412;2023-05-08T03:39:15;8.50;99.90
3866;DHT22;1948;53.250;10.412;2023-05-08T03:41:45;8.50;99.90
3866;DHT22;1948;53.250;10.412;2023-05-08T03:44:14;8.40;99.90
3866;DHT22;1948;53.250;10.412;2023-05-08T03:46:41;8.40;99.90
3866;DHT22;1948;53.250;10.412;2023-05-08T03:49:08;8.40;99.90
3866;DHT22;1948;53.250;10.412;2023-05-08T03:51:37;8.50;99.90
3866;DHT22;1948;53.250;10.412;2023-05-08T03:54:05;8.40;99.90
3866;DHT22;1948;53.250;10.412;2023-05-08T03:56:35;8.40;99.90
3866;DHT22;1948;53.250;10.412;2023-05-08T03:59:22;8.40;99.90
3866;DHT22;1948;53.250;10.412;2023-05-08T04:02:03;8.40;99.90
3866;DHT22;1948;53.250;10.412;2023-05-08T04:04:51;8.40;99.90
3866;DHT22;1948;53.250;10.412;2023-05-08T04:16:06;8.40;99.90
3866;DHT22;1948;53.250;10.412;2023-05-08T04:18:47;8.40;99.90
3866;DHT22;1948;53.250;10.412;2023-05-08T04:21:19;8.20;99.90
3866;DHT22;1948;53.250;10.412;2023-05-08T04:23:52;8.30;99.90
3866;DHT22;1948;53.250;10.412;2023-05-08T04:26:22;8.40;99.90
3866;DHT22;1948;53.250;10.412;2023-05-08T04:28:49;8.40;99.90
3866;DHT22;1948;53.250;10.412;2023-05-08T04:31:17;8.40;99.90
3866;DHT22;1948;53.250;10.412;2023-05-08T04:33:45;8.40;99.90
3866;DHT22;1948;53.250;10.412;2023-05-08T04:36:15;8.50;99.90
3866;DHT22;1948;53.250;10.412;2023-05-08T04:38:42;8.60;99.90
3866;DHT22;1948;53.250;10.412;2023-05-08T04:41:09;8.50;99.90
3866;DHT22;1948;53.250;10.412;2023-05-08T04:43:39;8.60;99.90
3866;DHT22;1948;53.250;10.412;2023-05-08T04:46:06;8.70;99.90
3866;DHT22;1948;53.250;10.412;2023-05-08T04:48:36;8.80;99.90
3866;DHT22;1948;53.250;10.412;2023-05-08T04:51:03;8.80;99.90
3866;DHT22;1948;53.250;10.412;2023-05-08T04:53:30;8.90;99.90
3866;DHT22;1948;53.250;10.412;2023-05-08T04:56:00;8.90;99.90
3866;DHT22;1948;53.250;10.412;2023-05-08T04:58:30;8.90;99.90
3866;DHT22;1948;53.250;10.412;2023-05-08T05:01:01;9.00;99.90
3866;DHT22;1948;53.250;10.412;2023-05-08T05:03:29;9.00;99.90
3866;DHT22;1948;53.250;10.412;2023-05-08T05:05:57;9.10;99.90
3866;DHT22;1948;53.250;10.412;2023-05-08T05:08:27;9.10;99.90
3866;DHT22;1948;53.250;10.412;2023-05-08T05:10:57;9.20;99.90
3866;DHT22;1948;53.250;10.412;2023-05-08T05:13:24;9.30;99.90
3866;DHT22;1948;53.250;10.412;2023-05-08T05:15:52;9.20;99.90
3866;DHT22;1948;53.250;10.412;2023-05-08T05:18:20;9.20;99.90
3866;DHT22;1948;53.250;10.412;2023-05-08T05:20:47;9.20;99.90
3866;DHT22;1948;53.250;10.412;2023-05-08T05:23:14;9.30;99.90
3866;DHT22;1948;53.250;10.412;2023-05-08T05:25:41;9.30;99.90
3866;DHT22;1948;53.250;10.412;2023-05-08T05:28:08;9.20;99.90
3866;DHT22;1948;53.250;10.412;2023-05-08T05:30:35;9.30;99.90
3866;DHT22;1948;53.250;10.412;2023-05-08T05:33:04;9.30;99.90
3866;DHT22;1948;53.250;10.412;2023-05-08T05:35:31;9.30;99.90
3866;DHT22;1948;53.250;10.412;2023-05-08T05:37:58;9.30;99.90
3866;DHT22;1948;53.250;10.412;2023-05-08T05:40:27;9.40;99.90
3866;DHT22;1948;53.250;10.412;2023-05-08T05:42:54;9.50;99.90
3866;DHT22;1948;53.250;10.412;2023-05-08T05:45:21;9.50;99.90
3866;DHT22;1948;53.250;10.412;2023-05-08T05:47:51;9.50;99.90
3866;DHT22;1948;53.250;10.412;2023-05-08T05:50:19;9.40;99.90
3866;DHT22;1948;53.250;10.412;2023-05-08T05:52:47;9.50;99.90
3866;DHT22;1948;53.250;10.412;2023-05-08T05:55:17;9.60;99.90
3866;DHT22;1948;53.250;10.412;2023-05-08T05:57:46;9.70;99.90
3866;DHT22;1948;53.250;10.412;2023-05-08T06:00:13;9.60;99.90
3866;DHT22;1948;53.250;10.412;2023-05-08T06:02:43;9.70;99.90
3866;DHT22;1948;53.250;10.412;2023-05-08T06:05:11;9.80;99.90
3866;DHT22;1948;53.250;10.412;2023-05-08T06:07:43;9.90;99.90
3866;DHT22;1948;53.250;10.412;2023-05-08T06:10:11;9.90;99.90
3866;DHT22;1948;53.250;10.412;2023-05-08T06:12:39;10.00;99.90
3866;DHT22;1948;53.250;10.412;2023-05-08T06:15:08;10.00;99.90
3866;DHT22;1948;53.250;10.412;2023-05-08T06:17:37;10.10;99.90
3866;DHT22;1948;53.250;10.412;2023-05-08T06:20:04;10.30;99.90
3866;DHT22;1948;53.250;10.412;2023-05-08T06:22:32;10.40;99.90
3866;DHT22;1948;53.250;10.412;2023-05-08T06:25:03;10.40;99.90
3866;DHT22;1948;53.250;10.412;2023-05-08T06:27:32;10.50;99.90
3866;DHT22;1948;53.250;10.412;2023-05-08T06:30:00;10.50;99.90
3866;DHT22;1948;53.250;10.412;2023-05-08T06:32:28;10.60;99.90
3866;DHT22;1948;53.250;10.412;2023-05-08T06:34:57;10.70;99.90
3866;DHT22;1948;53.250;10.412;2023-05-08T06:37:26;10.70;99.90
3866;DHT22;1948;53.250;10.412;2023-05-08T06:39:53;10.70;99.90
3866;DHT22;1948;53.250;10.412;2023-05-08T06:42:37;10.70;99.90
3866;DHT22;1948;53.250;10.412;2023-05-08T06:45:04;10.70;99.90
3866;DHT22;1948;53.250;10.412;2023-05-08T06:47:32;10.80;99.90
3866;DHT22;1948;53.250;10.412;2023-05-08T06:49:59;10.90;99.90
3866;DHT22;1948;53.250;10.412;2023-05-08T06:52:26;11.00;99.90
3866;DHT22;1948;53.250;10.412;2023-05-08T06:54:56;11.20;99.90
3866;DHT22;1948;53.250;10.412;2023-05-08T06:57:23;11.20;99.90
3866;DHT22;1948;53.250;10.412;2023-05-08T06:59:55;11.20;99.90
3866;DHT22;1948;53.250;10.412;2023-05-08T07:02:25;11.20;99.90
3866;DHT22;1948;53.250;10.412;2023-05-08T07:04:52;11.40;99.90
3866;DHT22;1948;53.250;10.412;2023-05-08T07:07:19;11.50;99.90
3866;DHT22;1948;53.250;10.412;2023-05-08T07:09:46;11.60;99.90
3866;DHT22;1948;53.250;10.412;2023-05-08T07:12:13;11.60;99.90
3866;DHT22;1948;53.250;10.412;2023-05-08T07:14:42;11.70;99.90
3866;DHT22;1948;53.250;10.412;2023-05-08T07:17:09;11.80;99.90
3866;DHT22;1948;53.250;10.412;2023-05-08T07:19:36;11.90;99.90
3866;DHT22;1948;53.250;10.412;2023-05-08T07:22:06;11.90;99.90
3866;DHT22;1948;53.250;10.412;2023-05-08T07:24:34;11.90;99.90
3866;DHT22;1948;53.250;10.412;2023-05-08T07:27:01;11.90;99.90
3866;DHT22;1948;53.250;10.412;2023-05-08T07:29:28;12.00;99.90
3866;DHT22;1948;53.250;10.412;2023-05-08T07:31:55;12.20;99.90
3866;DHT22;1948;53.250;10.412;2023-05-08T07:34:23;12.30;99.90
3866;DHT22;1948;53.250;10.412;2023-05-08T07:36:54;12.40;99.90
3866;DHT22;1948;53.250;10.412;2023-05-08T07:39:21;12.40;99.90
3866;DHT22;1948;53.250;10.412;2023-05-08T07:41:48;12.40;99.90
3866;DHT22;1948;53.250;10.412;2023-05-08T07:44:15;12.40;99.90
3866;DHT22;1948;53.250;10.412;2023-05-08T07:46:42;12.40;99.90
3866;DHT22;1948;53.250;10.412;2023-05-08T07:49:09;12.60;99.90
3866;DHT22;1948;53.250;10.412;2023-05-08T07:51:36;12.70;99.90
3866;DHT22;1948;53.250;10.412;2023-05-08T07:54:03;12.80;99.90
3866;DHT22;1948;53.250;10.412;2023-05-08T07:56:35;12.90;99.90
3866;DHT22;1948;53.250;10.412;2023-05-08T07:59:02;13.10;99.90
3866;DHT22;1948;53.250;10.412;2023-05-08T08:01:32;13.10;99.90
3866;DHT22;1948;53.250;10.412;2023-05-08T08:04:01;13.00;99.90
3866;DHT22;1948;53.250;10.412;2023-05-08T08:06:29;13.00;99.90
3866;DHT22;1948;53.250;10.412;2023-05-08T08:08:56;13.10;99.90
3866;DHT22;1948;53.250;10.412;2023-05-08T08:11:26;13.20;99.90
3866;DHT22;1948;53.250;10.412;2023-05-08T08:13:53;13.30;99.90
3866;DHT22;1948;53.250;10.412;2023-05-08T08:16:19;13.50;99.90
3866;DHT22;1948;53.250;10.412;2023-05-08T08:18:49;13.60;99.90
3866;DHT22;1948;53.250;10.412;2023-05-08T08:21:18;13.80;99.90
3866;DHT22;1948;53.250;10.412;2023-05-08T08:23:50;13.80;99.90
3866;DHT22;1948;53.250;10.412;2023-05-08T08:26:20;13.60;99.90
3866;DHT22;1948;53.250;10.412;2023-05-08T08:28:47;13.80;99.90
3866;DHT22;1948;53.250;10.412;2023-05-08T08:31:14;13.90;99.90
3866;DHT22;1948;53.250;10.412;2023-05-08T08:33:42;14.00;99.90
3866;DHT22;1948;53.250;10.412;2023-05-08T08:36:13;14.20;99.90
3866;DHT22;1948;53.250;10.412;2023-05-08T08:38:42;14.30;99.90
3866;DHT22;1948;53.250;10.412;2023-05-08T08:41:12;14.30;99.90
3866;DHT22;1948;53.250;10.412;2023-05-08T08:43:40;14.30;99.90
3866;DHT22;1948;53.250;10.412;2023-05-08T08:46:12;14.40;99.90
3866;DHT22;1948;53.250;10.412;2023-05-08T08:48:45;14.60;99.90
3866;DHT22;1948;53.250;10.412;2023-05-08T08:51:27;14.80;99.90
3866;DHT22;1948;53.250;10.412;2023-05-08T08:54:10;14.80;99.90
3866;DHT22;1948;53.250;10.412;2023-05-08T08:56:40;14.80;99.90
3866;DHT22;1948;53.250;10.412;2023-05-08T08:59:11;15.00;99.90
3866;DHT22;1948;53.250;10.412;2023-05-08T09:01:39;14.90;99.90
3866;DHT22;1948;53.250;10.412;2023-05-08T09:04:06;14.70;99.90
3866;DHT22;1948;53.250;10.412;2023-05-08T09:06:35;14.70;99.90
3866;DHT22;1948;53.250;10.412;2023-05-08T09:09:06;14.90;99.90
3866;DHT22;1948;53.250;10.412;2023-05-08T09:11:34;15.00;99.90
3866;DHT22;1948;53.250;10.412;2023-05-08T09:14:02;15.20;99.90
3866;DHT22;1948;53.250;10.412;2023-05-08T09:16:32;15.40;99.90
3866;DHT22;1948;53.250;10.412;2023-05-08T09:19:00;15.60;99.90
3866;DHT22;1948;53.250;10.412;2023-05-08T09:21:30;15.80;99.90
3866;DHT22;1948;53.250;10.412;2023-05-08T09:24:04;15.90;99.90
3866;DHT22;1948;53.250;10.412;2023-05-08T09:26:40;16.00;99.90
3866;DHT22;1948;53.250;10.412;2023-05-08T09:29:14;16.10;99.90
3866;DHT22;1948;53.250;10.412;2023-05-08T09:31:46;16.20;99.90
3866;DHT22;1948;53.250;10.412;2023-05-08T09:34:30;16.20;99.90
3866;DHT22;1948;53.250;10.412;2023-05-08T09:39:35;16.50;99.90
3866;DHT22;1948;53.250;10.412;2023-05-08T09:42:08;16.60;99.90
3866;DHT22;1948;53.250;10.412;2023-05-08T09:44:52;16.60;99.90
3866;DHT22;1948;53.250;10.412;2023-05-08T09:47:24;16.80;99.90
3866;DHT22;1948;53.250;10.412;2023-05-08T09:50:01;16.90;99.90
3866;DHT22;1948;53.250;10.412;2023-05-08T09:52:38;17.20;99.90
3866;DHT22;1948;53.250;10.412;2023-05-08T09:55:14;17.00;99.90
3866;DHT22;1948;53.250;10.412;2023-05-08T09:57:54;17.40;99.90
3866;DHT22;1948;53.250;10.412;2023-05-08T10:00:28;17.60;99.90
3866;DHT22;1948;53.250;10.412;2023-05-08T10:03:02;17.90;99.90
3866;DHT22;1948;53.250;10.412;2023-05-08T10:05:31;18.20;99.90
3866;DHT22;1948;53.250;10.412;2023-05-08T10:08:18;18.30;99.90
3866;DHT22;1948;53.250;10.412;2023-05-08T10:10:51;18.10;99.90
3866;DHT22;1948;53.250;10.412;2023-05-08T10:13:20;17.90;99.90
3866;DHT22;1948;53.250;10.412;2023-05-08T10:15:48;17.90;99.90
3866;DHT22;1948;53.250;10.412;2023-05-08T10:18:19;18.10;99.90
3866;DHT22;1948;53.250;10.412;2023-05-08T10:20:48;18.00;99.90
3866;DHT22;1948;53.250;10.412;2023-05-08T10:23:16;18.10;99.90
3866;DHT22;1948;53.250;10.412;2023-05-08T10:25:46;17.90;99.90
3866;DHT22;1948;53.250;10.412;2023-05-08T10:30:55;18.20;99.90
3866;DHT22;1948;53.250;10.412;2023-05-08T10:33:33;18.10;99.90
3866;DHT22;1948;53.250;10.412;2023-05-08T10:36:00;18.00;99.90
3866;DHT22;1948;53.250;10.412;2023-05-08T10:38:29;18.20;99.90
3866;DHT22;1948;53.250;10.412;2023-05-08T10:40:59;18.20;99.90
3866;DHT22;1948;53.250;10.412;2023-05-08T10:43:30;18.10;99.90
3866;DHT22;1948;53.250;10.412;2023-05-08T10:46:03;18.10;99.90
3866;DHT22;1948;53.250;10.412;2023-05-08T10:49:03;18.20;99.90
3866;DHT22;1948;53.250;10.412;2023-05-08T10:57:17;17.80;99.90
3866;DHT22;1948;53.250;10.412;2023-05-08T10:59:46;18.00;99.90
3866;DHT22;1948;53.250;10.412;2023-05-08T11:02:15;18.00;99.90
3866;DHT22;1948;53.250;10.412;2023-05-08T11:04:52;18.20;99.90
3866;DHT22;1948;53.250;10.412;2023-05-08T11:07:19;18.40;99.90
3866;DHT22;1948;53.250;10.412;2023-05-08T11:10:11;18.50;99.90
3866;DHT22;1948;53.250;10.412;2023-05-08T11:12:50;18.60;99.90
3866;DHT22;1948;53.250;10.412;2023-05-08T11:15:35;18.70;99.90
3866;DHT22;1948;53.250;10.412;2023-05-08T11:18:05;18.80;99.90
3866;DHT22;1948;53.250;10.412;2023-05-08T11:20:39;19.00;99.90
3866;DHT22;1948;53.250;10.412;2023-05-08T11:23:28;19.10;99.90
3866;DHT22;1948;53.250;10.412;2023-05-08T11:28:55;19.30;99.90
3866;DHT22;1948;53.250;10.412;2023-05-08T11:31:48;19.60;99.90
3866;DHT22;1948;53.250;10.412;2023-05-08T11:37:10;19.80;99.90
3866;DHT22;1948;53.250;10.412;2023-05-08T11:39:37;20.00;99.90
3866;DHT22;1948;53.250;10.412;2023-05-08T11:47:41;19.50;99.90
3866;DHT22;1948;53.250;10.412;2023-05-08T11:50:13;19.40;99.90
3866;DHT22;1948;53.250;10.412;2023-05-08T11:52:43;19.60;99.90
3866;DHT22;1948;53.250;10.412;2023-05-08T11:55:11;19.70;99.90
3866;DHT22;1948;53.250;10.412;2023-05-08T11:57:43;19.90;99.90
3866;DHT22;1948;53.250;10.412;2023-05-08T12:00:11;19.90;99.90
3866;DHT22;1948;53.250;10.412;2023-05-08T12:02:41;19.90;99.90
3866;DHT22;1948;53.250;10.412;2023-05-08T12:05:09;20.10;99.90
3866;DHT22;1948;53.250;10.412;2023-05-08T12:07:46;20.20;99.90
3866;DHT22;1948;53.250;10.412;2023-05-08T12:10:14;20.40;99.90
3866;DHT22;1948;53.250;10.412;2023-05-08T12:12:43;20.30;99.90
3866;DHT22;1948;53.250;10.412;2023-05-08T12:15:14;20.20;99.90
3866;DHT22;1948;53.250;10.412;2023-05-08T12:17:41;20.10;99.90
3866;DHT22;1948;53.250;10.412;2023-05-08T12:20:12;20.20;99.90
3866;DHT22;1948;53.250;10.412;2023-05-08T12:22:50;20.20;99.90
3866;DHT22;1948;53.250;10.412;2023-05-08T12:25:18;20.30;99.80
3866;DHT22;1948;53.250;10.412;2023-05-08T12:27:45;20.00;99.10
3866;DHT22;1948;53.250;10.412;2023-05-08T12:30:15;19.80;99.60
3866;DHT22;1948;53.250;10.412;2023-05-08T12:32:43;19.80;99.60
3866;DHT22;1948;53.250;10.412;2023-05-08T12:35:12;19.60;99.90
3866;DHT22;1948;53.250;10.412;2023-05-08T12:37:39;19.60;99.90
3866;DHT22;1948;53.250;10.412;2023-05-08T12:40:07;19.70;99.90
3866;DHT22;1948;53.250;10.412;2023-05-08T12:42:47;19.70;99.70
3866;DHT22;1948;53.250;10.412;2023-05-08T12:45:27;19.30;99.80
3866;DHT22;1948;53.250;10.412;2023-05-08T12:48:07;19.30;99.90
3866;DHT22;1948;53.250;10.412;2023-05-08T12:50:39;19.30;99.90
3866;DHT22;1948;53.250;10.412;2023-05-08T12:53:14;19.30;99.80
3866;DHT22;1948;53.250;10.412;2023-05-08T12:55:55;19.20;99.80
3866;DHT22;1948;53.250;10.412;2023-05-08T12:58:25;19.50;99.60
3866;DHT22;1948;53.250;10.412;2023-05-08T13:01:06;19.50;99.60
3866;DHT22;1948;53.250;10.412;2023-05-08T13:03:41;19.70;99.90
3866;DHT22;1948;53.250;10.412;2023-05-08T13:06:21;19.80;99.70
3866;DHT22;1948;53.250;10.412;2023-05-08T13:08:52;19.80;99.70
3866;DHT22;1948;53.250;10.412;2023-05-08T13:11:29;20.10;99.70
3866;DHT22;1948;53.250;10.412;2023-05-08T13:14:01;20.30;99.20
3866;DHT22;1948;53.250;10.412;2023-05-08T13:16:28;20.50;99.30
3866;DHT22;1948;53.250;10.412;2023-05-08T13:18:56;20.70;99.20
3866;DHT22;1948;53.250;10.412;2023-05-08T13:21:23;20.80;98.30
3866;DHT22;1948;53.250;10.412;2023-05-08T13:23:53;20.60;97.50
3866;DHT22;1948;53.250;10.412;2023-05-08T13:26:22;20.60;97.50
3866;DHT22;1948;53.250;10.412;2023-05-08T13:28:52;20.70;97.80
3866;DHT22;1948;53.250;10.412;2023-05-08T13:31:24;20.70;97.90
3866;DHT22;1948;53.250;10.412;2023-05-08T13:33:54;20.90;97.50
3866;DHT22;1948;53.250;10.412;2023-05-08T13:36:21;20.80;97.20
3866;DHT22;1948;53.250;10.412;2023-05-08T13:38:51;20.80;97.00
3866;DHT22;1948;53.250;10.412;2023-05-08T13:41:20;20.70;96.60
3866;DHT22;1948;53.250;10.412;2023-05-08T13:43:49;20.70;96.90
3866;DHT22;1948;53.250;10.412;2023-05-08T13:46:16;20.80;97.30
3866;DHT22;1948;53.250;10.412;2023-05-08T13:48:49;20.70;96.40
3866;DHT22;1948;53.250;10.412;2023-05-08T13:51:18;20.70;96.50
3866;DHT22;1948;53.250;10.412;2023-05-08T13:53:47;20.60;95.90
3866;DHT22;1948;53.250;10.412;2023-05-08T13:56:16;20.60;96.30
3866;DHT22;1948;53.250;10.412;2023-05-08T13:58:43;20.50;96.00
3866;DHT22;1948;53.250;10.412;2023-05-08T14:01:10;20.50;95.90
3866;DHT22;1948;53.250;10.412;2023-05-08T14:03:53;20.60;95.90
3866;DHT22;1948;53.250;10.412;2023-05-08T14:06:25;20.70;95.60
3866;DHT22;1948;53.250;10.412;2023-05-08T14:08:57;20.70;95.10
3866;DHT22;1948;53.250;10.412;2023-05-08T14:11:24;20.60;94.60
3866;DHT22;1948;53.250;10.412;2023-05-08T14:13:51;20.60;94.90
3866;DHT22;1948;53.250;10.412;2023-05-08T14:16:20;20.70;95.10
3866;DHT22;1948;53.250;10.412;2023-05-08T14:18:47;20.60;94.80
3866;DHT22;1948;53.250;10.412;2023-05-08T14:21:15;20.60;94.60
3866;DHT22;1948;53.250;10.412;2023-05-08T14:23:42;20.50;94.50
3866;DHT22;1948;53.250;10.412;2023-05-08T14:26:10;20.50;94.50
3866;DHT22;1948;53.250;10.412;2023-05-08T14:28:37;20.60;94.30
3866;DHT22;1948;53.250;10.412;2023-05-08T14:31:04;20.70;94.30
3866;DHT22;1948;53.250;10.412;2023-05-08T14:33:31;20.70;93.80
3866;DHT22;1948;53.250;10.412;2023-05-08T14:35:58;20.60;93.70
3866;DHT22;1948;53.250;10.412;2023-05-08T14:38:28;20.50;93.60
3866;DHT22;1948;53.250;10.412;2023-05-08T14:40:55;20.60;93.90
3866;DHT22;1948;53.250;10.412;2023-05-08T14:43:22;20.70;93.50
3866;DHT22;1948;53.250;10.412;2023-05-08T14:45:49;20.60;93.20
3866;DHT22;1948;53.250;10.412;2023-05-08T14:48:17;20.40;92.90
3866;DHT22;1948;53.250;10.412;2023-05-08T14:50:46;20.30;92.70
3866;DHT22;1948;53.250;10.412;2023-05-08T14:53:15;20.40;92.60
3866;DHT22;1948;53.250;10.412;2023-05-08T14:55:45;20.50;92.00
3866;DHT22;1948;53.250;10.412;2023-05-08T14:58:13;20.40;91.90
3866;DHT22;1948;53.250;10.412;2023-05-08T15:00:45;20.40;92.10
3866;DHT22;1948;53.250;10.412;2023-05-08T15:03:12;20.40;92.20
3866;DHT22;1948;53.250;10.412;2023-05-08T15:05:39;20.40;92.40
3866;DHT22;1948;53.250;10.412;2023-05-08T15:08:06;20.40;91.50
3866;DHT22;1948;53.250;10.412;2023-05-08T15:10:34;20.40;91.70
3866;DHT22;1948;53.250;10.412;2023-05-08T15:13:02;20.40;91.40
3866;DHT22;1948;53.250;10.412;2023-05-08T15:15:31;20.40;91.30
3866;DHT22;1948;53.250;10.412;2023-05-08T15:17:58;20.20;90.90
3866;DHT22;1948;53.250;10.412;2023-05-08T15:20:25;20.20;90.90
3866;DHT22;1948;53.250;10.412;2023-05-08T15:22:52;20.20;91.30
3866;DHT22;1948;53.250;10.412;2023-05-08T15:25:22;20.30;91.10
3866;DHT22;1948;53.250;10.412;2023-05-08T15:27:51;20.40;91.20
3866;DHT22;1948;53.250;10.412;2023-05-08T15:30:19;20.50;91.30
3866;DHT22;1948;53.250;10.412;2023-05-08T15:32:49;20.60;90.90
3866;DHT22;1948;53.250;10.412;2023-05-08T15:35:17;20.70;90.90
3866;DHT22;1948;53.250;10.412;2023-05-08T15:37:47;20.60;90.50
3866;DHT22;1948;53.250;10.412;2023-05-08T15:40:15;20.50;90.70
3866;DHT22;1948;53.250;10.412;2023-05-08T15:42:42;20.50;90.80
3866;DHT22;1948;53.250;10.412;2023-05-08T15:45:11;20.50;90.40
3866;DHT22;1948;53.250;10.412;2023-05-08T15:47:42;20.50;90.50
3866;DHT22;1948;53.250;10.412;2023-05-08T15:50:11;20.60;90.30
3866;DHT22;1948;53.250;10.412;2023-05-08T15:52:41;20.60;90.50
3866;DHT22;1948;53.250;10.412;2023-05-08T15:55:08;20.50;90.30
3866;DHT22;1948;53.250;10.412;2023-05-08T15:57:38;20.50;90.30
3866;DHT22;1948;53.250;10.412;2023-05-08T16:00:12;20.50;90.00
3866;DHT22;1948;53.250;10.412;2023-05-08T16:02:40;20.50;89.60
3866;DHT22;1948;53.250;10.412;2023-05-08T16:05:08;20.40;89.60
3866;DHT22;1948;53.250;10.412;2023-05-08T16:07:38;20.40;89.40
3866;DHT22;1948;53.250;10.412;2023-05-08T16:10:05;20.30;88.90
3866;DHT22;1948;53.250;10.412;2023-05-08T16:12:35;20.30;89.50
3866;DHT22;1948;53.250;10.412;2023-05-08T16:15:07;20.20;89.00
3866;DHT22;1948;53.250;10.412;2023-05-08T16:17:34;20.20;90.00
3866;DHT22;1948;53.250;10.412;2023-05-08T16:20:03;20.20;90.00
3866;DHT22;1948;53.250;10.412;2023-05-08T16:22:31;20.30;89.40
3866;DHT22;1948;53.250;10.412;2023-05-08T16:24:58;20.30;89.00
3866;DHT22;1948;53.250;10.412;2023-05-08T16:27:27;20.20;88.70
3866;DHT22;1948;53.250;10.412;2023-05-08T16:29:56;20.20;89.30
3866;DHT22;1948;53.250;10.412;2023-05-08T16:32:23;20.20;88.60
3866;DHT22;1948;53.250;10.412;2023-05-08T16:34:53;20.10;87.60
3866;DHT22;1948;53.250;10.412;2023-05-08T16:37:20;20.10;87.20
3866;DHT22;1948;53.250;10.412;2023-05-08T16:39:49;20.00;87.80
3866;DHT22;1948;53.250;10.412;2023-05-08T16:42:18;20.10;87.40
3866;DHT22;1948;53.250;10.412;2023-05-08T16:44:46;20.10;86.70
3866;DHT22;1948;53.250;10.412;2023-05-08T16:47:18;20.10;87.30
3866;DHT22;1948;53.250;10.412;2023-05-08T16:49:45;20.20;86.90
3866;DHT22;1948;53.250;10.412;2023-05-08T16:52:12;20.20;87.10
3866;DHT22;1948;53.250;10.412;2023-05-08T16:54:39;20.20;87.10
3866;DHT22;1948;53.250;10.412;2023-05-08T16:57:06;20.20;86.50
3866;DHT22;1948;53.250;10.412;2023-05-08T16:59:33;20.20;86.40
3866;DHT22;1948;53.250;10.412;2023-05-08T17:02:00;20.20;86.60
3866;DHT22;1948;53.250;10.412;2023-05-08T17:04:27;20.20;86.80
3866;DHT22;1948;53.250;10.412;2023-05-08T17:06:56;20.20;85.50
3866;DHT22;1948;53.250;10.412;2023-05-08T17:09:25;20.10;84.60
3866;DHT22;1948;53.250;10.412;2023-05-08T17:11:53;20.10;84.80
3866;DHT22;1948;53.250;10.412;2023-05-08T17:14:20;20.00;84.80